createdAt,value
2019-06-26T00:03:03.473Z,5.00
2019-06-26T00:06:09.137Z,4.83
2019-06-26T00:09:14.842Z,4.97
2019-06-26T00:12:20.575Z,5.00
2019-06-26T00:15:26.305Z,5.10
2019-06-26T00:18:32.334Z,4.90
2019-06-26T00:21:38.026Z,4.97
2019-06-26T00:24:43.716Z,4.90
2019-06-26T00:27:49.423Z,5.17
2019-06-26T00:30:55.121Z,4.90
2019-06-26T00:34:00.855Z,4.77
2019-06-26T00:37:06.509Z,5.30
2019-06-26T00:40:12.446Z,4.93
2019-06-26T00:43:18.093Z,5.20
2019-06-26T00:46:23.798Z,5.20
2019-06-26T00:49:29.451Z,5.07
2019-06-26T00:52:35.156Z,5.37
2019-06-26T00:55:40.835Z,5.90
2019-06-26T00:58:46.538Z,5.23
2019-06-26T01:01:52.403Z,5.50
2019-06-26T01:05:00.172Z,5.80
2019-06-26T01:08:05.914Z,5.87
2019-06-26T01:11:11.609Z,6.17
2019-06-26T01:14:17.260Z,6.93
2019-06-26T01:17:22.963Z,5.47
2019-06-26T01:20:28.629Z,6.00
2019-06-26T01:23:35.314Z,6.70
2019-06-26T01:26:41.001Z,7.00
2019-06-26T01:29:46.691Z,6.10
2019-06-26T01:32:52.373Z,6.13
2019-06-26T01:35:58.101Z,6.50
2019-06-26T01:39:04.738Z,5.83
2019-06-26T01:42:10.650Z,6.30
2019-06-26T01:45:16.514Z,5.77
2019-06-26T01:48:22.212Z,6.10
2019-06-26T01:51:27.920Z,6.20
2019-06-26T01:54:33.689Z,6.00
2019-06-26T01:57:40.439Z,6.27
2019-06-26T02:00:46.066Z,6.13
2019-06-26T02:03:51.765Z,6.40
2019-06-26T02:06:57.448Z,6.23
2019-06-26T02:10:03.247Z,6.03
2019-06-26T02:13:08.918Z,6.00
2019-06-26T02:16:14.598Z,6.57
2019-06-26T02:19:21.191Z,6.13
2019-06-26T02:22:26.893Z,6.10
2019-06-26T02:25:32.643Z,5.83
2019-06-26T02:28:38.422Z,5.77
2019-06-26T02:31:44.176Z,6.50
2019-06-26T02:34:49.900Z,6.37
2019-06-26T02:37:56.533Z,6.37
2019-06-26T02:41:02.285Z,6.37
2019-06-26T02:44:07.945Z,6.40
2019-06-26T02:47:20.186Z,6.30
2019-06-26T02:50:20.982Z,6.23
2019-06-26T02:53:26.689Z,6.20
2019-06-26T02:56:32.367Z,6.83
2019-06-26T02:59:38.099Z,6.43
2019-06-26T03:02:43.804Z,7.00
2019-06-26T03:05:49.498Z,6.57
2019-06-26T03:08:55.211Z,5.90
2019-06-26T03:12:00.874Z,6.43
2019-06-26T03:15:09.226Z,6.87
2019-06-26T03:18:14.523Z,6.57
2019-06-26T03:21:20.619Z,7.63
2019-06-26T03:24:26.329Z,7.80
2019-06-26T03:27:32.127Z,7.87
2019-06-26T03:30:38.794Z,8.13
2019-06-26T03:33:44.533Z,8.20
2019-06-26T03:36:50.276Z,8.23
2019-06-26T03:39:55.989Z,8.30
2019-06-26T03:43:01.815Z,7.63
2019-06-26T03:46:07.511Z,9.33
2019-06-26T03:49:13.264Z,8.27
2019-06-26T03:52:18.960Z,8.23
2019-06-26T03:55:24.839Z,8.40
2019-06-26T03:58:30.569Z,8.13
2019-06-26T04:01:36.307Z,8.53
2019-06-26T04:04:41.963Z,7.73
2019-06-26T04:07:47.696Z,7.90
2019-06-26T04:10:53.568Z,8.00
2019-06-26T04:13:59.227Z,7.57
2019-06-26T04:17:05.052Z,8.13
2019-06-26T04:20:10.953Z,8.27
2019-06-26T04:23:16.635Z,7.90
2019-06-26T04:26:22.342Z,7.97
2019-06-26T04:29:28.070Z,7.77
2019-06-26T04:32:33.721Z,8.70
2019-06-26T04:35:39.788Z,7.33
2019-06-26T04:38:45.475Z,8.00
2019-06-26T04:41:51.162Z,7.57
2019-06-26T04:44:56.937Z,7.97
2019-06-26T04:48:02.756Z,7.67
2019-06-26T04:51:08.566Z,7.70
2019-06-26T04:54:14.510Z,9.03
2019-06-26T04:57:20.287Z,7.87
2019-06-26T05:00:26.243Z,8.50
2019-06-26T05:03:32.043Z,8.47
2019-06-26T05:06:37.803Z,8.07
2019-06-26T05:09:45.418Z,8.80
2019-06-26T05:12:51.040Z,8.00
2019-06-26T05:15:56.728Z,8.40
2019-06-26T05:19:02.403Z,8.60
2019-06-26T05:22:08.108Z,8.40
2019-06-26T05:25:14.207Z,8.23
2019-06-26T05:28:19.886Z,8.30
2019-06-26T05:31:25.718Z,8.10
2019-06-26T05:34:31.446Z,8.83
2019-06-26T05:37:37.180Z,8.53
2019-06-26T05:40:44.585Z,8.07
2019-06-26T05:43:50.350Z,7.72
2019-06-26T05:46:56.067Z,8.33
2019-06-26T05:50:01.848Z,8.23
2019-06-26T05:53:07.717Z,8.53
2019-06-26T05:56:13.384Z,7.72
2019-06-26T05:59:19.051Z,8.23
2019-06-26T06:02:24.943Z,7.92
2019-06-26T06:05:32.808Z,8.33
2019-06-26T06:08:38.480Z,8.43
2019-06-26T06:11:44.139Z,8.03
2019-06-26T06:14:49.844Z,8.65
2019-06-26T06:17:56.613Z,8.33
2019-06-26T06:21:05.561Z,8.43
2019-06-26T06:24:11.251Z,8.33
2019-06-26T06:27:17.010Z,9.58
2019-06-26T06:30:23.223Z,8.75
2019-06-26T06:33:28.917Z,9.60
2019-06-26T06:36:34.737Z,8.95
2019-06-26T06:39:40.679Z,8.70
2019-06-26T06:42:46.543Z,9.13
2019-06-26T06:45:52.273Z,9.10
2019-06-26T06:48:57.977Z,9.65
2019-06-26T06:52:03.791Z,9.18
2019-06-26T06:55:09.674Z,9.65
2019-06-26T06:58:15.459Z,9.88
2019-06-26T07:01:21.102Z,10.13
2019-06-26T07:04:26.959Z,9.73
2019-06-26T07:07:32.659Z,9.65
2019-06-26T07:10:38.340Z,10.32
2019-06-26T07:13:44.110Z,9.55
2019-06-26T07:16:49.928Z,10.03
2019-06-26T07:19:55.602Z,10.85
2019-06-26T07:23:01.335Z,9.80
2019-06-26T07:26:07.395Z,9.85
2019-06-26T07:29:13.095Z,9.55
2019-06-26T07:32:18.786Z,9.13
2019-06-26T07:35:28.440Z,10.03
2019-06-26T07:38:34.195Z,9.30
2019-06-26T07:41:39.899Z,9.38
2019-06-26T07:44:45.627Z,8.75
2019-06-26T07:47:52.460Z,8.88
2019-06-26T07:50:58.140Z,8.95
2019-06-26T07:54:03.840Z,9.03
2019-06-26T07:57:09.503Z,9.08
2019-06-26T08:00:17.121Z,9.18
2019-06-26T08:03:22.861Z,9.38
2019-06-26T08:06:28.602Z,10.65
2019-06-26T08:09:34.756Z,11.05
2019-06-26T08:12:40.395Z,10.53
2019-06-26T08:15:46.178Z,10.20
2019-06-26T08:18:51.878Z,11.03
2019-06-26T08:21:57.645Z,9.90
2019-06-26T08:25:03.319Z,10.15
2019-06-26T08:28:09.023Z,10.45
2019-06-26T08:31:14.719Z,10.00
2019-06-26T08:34:20.388Z,9.13
2019-06-26T08:37:26.052Z,9.60
2019-06-26T08:40:31.819Z,9.60
2019-06-26T08:43:37.467Z,9.68
2019-06-26T08:46:43.179Z,8.95
2019-06-26T08:49:48.910Z,8.48
2019-06-26T08:52:54.619Z,8.60
2019-06-26T08:56:00.323Z,8.70
2019-06-26T08:59:06.043Z,8.48
2019-06-26T09:02:11.704Z,7.78
2019-06-26T09:05:19.560Z,9.33
2019-06-26T09:08:26.197Z,8.88
2019-06-26T09:11:36.459Z,8.70
2019-06-26T09:14:42.716Z,9.90
2019-06-26T09:17:48.505Z,9.15
2019-06-26T09:20:59.113Z,8.55
2019-06-26T09:24:03.591Z,8.38
2019-06-26T09:27:09.365Z,9.48
2019-06-26T09:30:16.394Z,9.55
2019-06-26T09:33:22.079Z,10.08
2019-06-26T09:36:30.172Z,9.15
2019-06-26T09:39:35.901Z,8.98
2019-06-26T09:42:41.690Z,8.75
2019-06-26T09:45:48.673Z,8.38
2019-06-26T09:48:54.389Z,8.30
2019-06-26T09:52:00.052Z,8.30
2019-06-26T09:55:06.329Z,7.97
2019-06-26T09:58:13.350Z,8.13
2019-06-26T10:01:19.618Z,7.92
2019-06-26T10:04:25.340Z,7.95
2019-06-26T10:07:30.964Z,8.03
2019-06-26T10:10:37.828Z,8.20
2019-06-26T10:13:43.688Z,7.62
2019-06-26T10:16:49.375Z,7.60
2019-06-26T10:19:55.070Z,7.60
2019-06-26T10:23:00.748Z,7.67
2019-06-26T10:26:06.456Z,9.43
2019-06-26T10:29:12.227Z,7.60
2019-06-26T10:32:17.934Z,8.10
2019-06-26T10:35:23.884Z,6.80
2019-06-26T10:38:29.582Z,7.72
2019-06-26T10:41:35.389Z,7.67
2019-06-26T10:44:41.034Z,7.53
2019-06-26T10:47:46.847Z,7.65
2019-06-26T10:50:58.532Z,6.95
2019-06-26T10:54:01.033Z,7.40
2019-06-26T10:57:06.791Z,6.87
2019-06-26T11:00:12.972Z,7.28
2019-06-26T11:03:18.772Z,7.85
2019-06-26T11:06:24.689Z,7.37
2019-06-26T11:09:30.370Z,7.25
2019-06-26T11:12:36.099Z,7.97
2019-06-26T11:15:41.825Z,7.50
2019-06-26T11:18:47.554Z,7.40
2019-06-26T11:21:53.328Z,6.85
2019-06-26T11:24:59.059Z,8.48
2019-06-26T11:28:04.879Z,7.30
2019-06-26T11:31:12.105Z,6.80
2019-06-26T11:34:17.791Z,7.45
2019-06-26T11:37:23.498Z,7.20
2019-06-26T11:40:29.320Z,7.40
2019-06-26T11:43:35.019Z,6.90
2019-06-26T11:46:40.676Z,7.70
2019-06-26T11:49:59.434Z,8.30
2019-06-26T11:52:59.654Z,7.95
2019-06-26T11:56:05.564Z,8.40
2019-06-26T11:59:11.376Z,8.43
2019-06-26T12:02:18.098Z,8.35
2019-06-26T12:05:24.015Z,8.30
2019-06-26T12:08:29.706Z,8.30
2019-06-26T12:11:39.220Z,7.70
2019-06-26T12:14:45.056Z,7.65
2019-06-26T12:17:50.812Z,8.13
2019-06-26T12:20:56.508Z,7.90
2019-06-26T12:24:02.532Z,8.38
2019-06-26T12:27:08.212Z,8.08
2019-06-26T12:30:14.238Z,7.47
2019-06-26T12:33:19.891Z,7.60
2019-06-26T12:36:25.855Z,7.87
2019-06-26T12:39:31.527Z,7.97
2019-06-26T12:42:37.281Z,7.97
2019-06-26T12:45:47.693Z,7.78
2019-06-26T12:48:53.446Z,7.67
2019-06-26T12:51:59.175Z,7.40
2019-06-26T12:55:05.455Z,7.65
2019-06-26T12:58:13.865Z,5.10
2019-06-26T13:01:18.587Z,4.33
2019-06-26T13:04:24.304Z,4.12
2019-06-26T13:07:30.034Z,3.40
2019-06-26T13:10:49.041Z,4.10
2019-06-26T13:13:43.203Z,4.55
2019-06-26T13:16:48.901Z,5.40
2019-06-26T13:19:54.566Z,6.10
2019-06-26T13:23:00.299Z,6.67
2019-06-26T13:26:05.959Z,6.63
2019-06-26T13:29:11.688Z,7.10
2019-06-26T13:32:17.324Z,6.27
2019-06-26T13:35:24.339Z,5.97
2019-06-26T13:38:30.215Z,6.50
2019-06-26T13:41:35.949Z,5.50
2019-06-26T13:44:42.666Z,6.17
2019-06-26T13:47:48.438Z,6.67
2019-06-26T13:51:08.220Z,7.47
2019-06-26T13:54:01.515Z,7.10
2019-06-26T13:57:07.185Z,7.57
2019-06-26T14:00:13.793Z,7.13
2019-06-26T14:03:19.683Z,6.30
2019-06-26T14:06:25.462Z,7.27
2019-06-26T14:09:31.181Z,7.10
2019-06-26T14:12:37.026Z,7.70
2019-06-26T14:15:42.905Z,8.10
2019-06-26T14:18:48.613Z,7.40
2019-06-26T14:21:54.326Z,7.77
2019-06-26T14:25:00.049Z,8.13
2019-06-26T14:28:05.762Z,7.90
2019-06-26T14:31:11.453Z,6.93
2019-06-26T14:34:17.166Z,7.13
2019-06-26T14:37:22.884Z,7.03
2019-06-26T14:40:28.558Z,7.13
2019-06-26T14:43:34.278Z,6.63
2019-06-26T14:46:40.043Z,7.60
2019-06-26T14:49:45.743Z,6.37
2019-06-26T14:52:51.407Z,6.73
2019-06-26T14:55:57.209Z,6.50
2019-06-26T14:59:03.012Z,6.83
2019-06-26T15:02:08.719Z,7.20
2019-06-26T15:05:14.436Z,7.90
2019-06-26T15:08:20.108Z,6.63
2019-06-26T15:11:25.972Z,6.47
2019-06-26T15:14:31.625Z,6.83
2019-06-26T15:17:37.403Z,6.77
2019-06-26T15:20:43.125Z,6.37
2019-06-26T15:23:48.789Z,6.33
2019-06-26T15:27:02.747Z,6.87
2019-06-26T15:30:08.705Z,6.33
2019-06-26T15:33:14.450Z,6.75
2019-06-26T15:36:20.124Z,6.78
2019-06-26T15:39:26.135Z,6.85
2019-06-26T15:42:31.817Z,7.03
2019-06-26T15:45:37.470Z,7.33
2019-06-26T15:48:43.200Z,6.93
2019-06-26T15:51:48.999Z,7.67
2019-06-26T15:54:54.700Z,6.97
2019-06-26T15:58:00.397Z,7.10
2019-06-26T16:01:06.228Z,7.50
2019-06-26T16:04:11.897Z,7.10
2019-06-26T16:07:17.621Z,7.60
2019-06-26T16:10:23.638Z,6.87
2019-06-26T16:13:30.531Z,6.72
2019-06-26T16:16:38.700Z,7.60
2019-06-26T16:19:45.421Z,6.93
2019-06-26T16:22:51.224Z,7.33
2019-06-26T16:25:57.071Z,7.08
2019-06-26T16:29:02.887Z,6.90
2019-06-26T16:32:08.652Z,7.90
2019-06-26T16:35:15.828Z,8.77
2019-06-26T16:38:21.610Z,7.33
2019-06-26T16:41:28.265Z,8.38
2019-06-26T16:44:34.059Z,9.20
2019-06-26T16:47:40.204Z,9.80
2019-06-26T16:50:46.889Z,10.32
2019-06-26T16:53:53.099Z,9.15
2019-06-26T16:56:58.796Z,7.60
2019-06-26T17:00:09.907Z,8.87
2019-06-26T17:03:12.809Z,8.03
2019-06-26T17:06:18.605Z,7.37
2019-06-26T17:09:24.309Z,7.62
2019-06-26T17:12:29.973Z,7.40
2019-06-26T17:15:35.657Z,7.93
2019-06-26T17:18:41.375Z,7.12
2019-06-26T17:21:47.093Z,7.57
2019-06-26T17:24:52.776Z,8.20
2019-06-26T17:27:58.432Z,8.00
2019-06-26T17:31:04.242Z,7.85
2019-06-26T17:34:09.940Z,7.90
2019-06-26T17:37:16.669Z,7.50
2019-06-26T17:40:22.573Z,8.10
2019-06-26T17:43:29.379Z,7.83
2019-06-26T17:46:35.069Z,9.88
2019-06-26T17:49:40.728Z,9.43
2019-06-26T17:52:46.425Z,9.53
2019-06-26T17:55:52.099Z,9.80
2019-06-26T17:58:57.817Z,8.60
2019-06-26T18:02:03.589Z,8.60
2019-06-26T18:05:09.715Z,9.00
2019-06-26T18:08:15.594Z,9.03
2019-06-26T18:11:21.425Z,9.50
2019-06-26T18:14:27.064Z,9.63
2019-06-26T18:17:32.751Z,10.03
2019-06-26T18:20:38.573Z,9.13
2019-06-26T18:23:44.397Z,9.70
2019-06-26T18:26:50.070Z,8.87
2019-06-26T18:29:55.808Z,9.50
2019-06-26T18:33:02.067Z,9.00
2019-06-26T18:36:10.018Z,9.17
2019-06-26T18:39:27.247Z,9.00
2019-06-26T18:42:32.980Z,9.63
2019-06-26T18:45:38.678Z,9.27
2019-06-26T18:48:45.561Z,9.00
2019-06-26T18:51:51.233Z,8.87
2019-06-26T18:54:56.940Z,9.57
2019-06-26T18:58:02.618Z,9.30
2019-06-26T19:01:08.275Z,9.10
2019-06-26T19:04:13.972Z,9.20
2019-06-26T19:07:19.676Z,8.97
2019-06-26T19:10:25.348Z,8.63
2019-06-26T19:13:31.038Z,8.73
2019-06-26T19:16:37.839Z,8.83
2019-06-26T19:19:43.580Z,8.90
2019-06-26T19:22:49.286Z,9.33
2019-06-26T19:25:55.023Z,8.40
2019-06-26T19:29:00.706Z,8.97
2019-06-26T19:32:06.497Z,8.13
2019-06-26T19:35:20.322Z,8.83
2019-06-26T19:38:20.334Z,8.77
2019-06-26T19:41:26.030Z,8.60
2019-06-26T19:44:31.748Z,8.67
2019-06-26T19:47:37.572Z,8.23
2019-06-26T19:50:43.287Z,8.57
2019-06-26T19:53:49.082Z,9.10
2019-06-26T19:56:54.833Z,9.93
2019-06-26T20:00:00.799Z,9.00
2019-06-26T20:03:06.745Z,8.53
2019-06-26T20:06:42.331Z,9.07
2019-06-26T20:09:54.891Z,8.77
2019-06-26T20:12:57.380Z,8.87
2019-06-26T20:16:02.877Z,8.73
2019-06-26T20:19:08.684Z,8.87
2019-06-26T20:22:14.427Z,7.93
2019-06-26T20:25:20.709Z,8.47
2019-06-26T20:28:26.237Z,8.87
2019-06-26T20:31:31.760Z,8.53
2019-06-26T20:34:37.292Z,8.40
2019-06-26T20:37:43.860Z,8.40
2019-06-26T20:40:49.395Z,8.57
2019-06-26T20:43:54.930Z,7.50
2019-06-26T20:47:01.491Z,8.57
2019-06-26T20:50:07.521Z,7.97
2019-06-26T20:53:13.017Z,8.40
2019-06-26T20:56:18.570Z,10.23
2019-06-26T20:59:24.188Z,9.93
2019-06-26T21:02:29.761Z,9.20
2019-06-26T21:05:35.264Z,9.63
2019-06-26T21:08:40.825Z,9.50
2019-06-26T21:11:46.365Z,8.83
2019-06-26T21:14:51.929Z,9.53
2019-06-26T21:17:57.475Z,9.10
2019-06-26T21:21:03.013Z,9.13
2019-06-26T21:24:08.573Z,9.47
2019-06-26T21:27:14.054Z,8.63
2019-06-26T21:30:19.747Z,9.50
2019-06-26T21:33:25.239Z,9.40
2019-06-26T21:36:30.780Z,9.23
2019-06-26T21:39:36.292Z,9.10
2019-06-26T21:42:41.827Z,9.57
2019-06-26T21:45:47.389Z,8.30
2019-06-26T21:48:52.887Z,9.10
2019-06-26T21:51:58.498Z,8.80
2019-06-26T21:55:04.310Z,9.03
2019-06-26T21:58:27.544Z,8.90
2019-06-26T22:01:51.015Z,8.97
2019-06-26T22:05:14.417Z,8.77
2019-06-26T22:08:36.660Z,8.33
2019-06-26T22:11:43.826Z,8.60
2019-06-26T22:14:49.399Z,8.50
2019-06-26T22:17:55.164Z,9.50
2019-06-26T22:21:00.753Z,14.17
2019-06-26T22:24:06.416Z,20.57
2019-06-26T22:27:12.128Z,25.00
2019-06-26T22:30:19.250Z,24.20
2019-06-26T22:33:24.986Z,21.93
2019-06-26T22:36:31.455Z,27.40
2019-06-26T22:39:37.085Z,20.30
2019-06-26T22:42:42.662Z,17.53
2019-06-26T22:45:48.316Z,12.70
2019-06-26T22:48:53.961Z,9.27
2019-06-26T22:52:00.069Z,8.43
2019-06-26T22:55:06.292Z,8.00
2019-06-26T22:58:12.107Z,7.97
2019-06-26T23:01:17.942Z,8.33
2019-06-26T23:04:23.880Z,8.37
2019-06-26T23:07:29.772Z,8.43
2019-06-26T23:10:35.460Z,9.77
2019-06-26T23:13:41.171Z,9.00
2019-06-26T23:16:46.859Z,10.53
2019-06-26T23:19:52.547Z,11.83
2019-06-26T23:22:58.200Z,10.63
2019-06-26T23:26:03.963Z,11.60
2019-06-26T23:29:09.816Z,10.90
2019-06-26T23:32:15.547Z,11.43
2019-06-26T23:35:21.228Z,10.67
2019-06-26T23:38:26.928Z,11.03
2019-06-26T23:41:32.605Z,11.70
2019-06-26T23:44:38.311Z,10.30
2019-06-26T23:47:44.040Z,10.43
2019-06-26T23:50:49.723Z,10.60
2019-06-26T23:53:56.410Z,10.43
2019-06-26T23:57:02.111Z,10.83
